createdAt,value
2022-08-03T00:01:48.492Z,1.83
2022-08-03T00:04:14.947Z,1.60
2022-08-03T00:06:41.475Z,1.83
2022-08-03T00:09:08.454Z,1.90
2022-08-03T00:11:35.285Z,1.83
2022-08-03T00:14:01.755Z,2.05
2022-08-03T00:16:28.225Z,2.47
2022-08-03T00:18:54.673Z,2.10
2022-08-03T00:21:21.104Z,2.00
2022-08-03T00:23:52.079Z,2.08
2022-08-03T03:12:06.399Z,3.35
2022-08-03T03:23:42.854Z,2.92
2022-08-03T03:27:20.967Z,3.72
2022-08-03T05:30:27.307Z,3.78
2022-08-03T05:59:38.295Z,3.80
2022-08-03T06:13:14.251Z,4.53
2022-08-03T06:15:40.687Z,3.38
2022-08-03T06:18:07.897Z,4.00
2022-08-03T06:20:34.343Z,3.33
2022-08-03T06:23:01.989Z,3.90
2022-08-03T06:29:21.823Z,3.33
2022-08-03T06:49:08.543Z,3.80
2022-08-03T06:52:04.086Z,3.63
2022-08-03T06:54:25.381Z,3.80
2022-08-03T06:56:52.290Z,4.07
2022-08-03T07:00:06.199Z,3.67
2022-08-03T07:02:05.462Z,4.60
2022-08-03T07:50:00.314Z,3.65
2022-08-03T07:53:07.381Z,3.65
2022-08-03T07:57:13.175Z,3.22
2022-08-03T08:00:01.938Z,3.47
2022-08-03T08:06:27.893Z,3.42
2022-08-03T08:11:55.650Z,3.80
2022-08-03T08:14:31.917Z,3.75
2022-08-03T08:17:07.339Z,3.85
2022-08-03T08:19:34.026Z,3.45
2022-08-03T08:22:05.780Z,4.07
2022-08-03T08:24:36.593Z,3.47
2022-08-03T08:27:03.391Z,3.70
2022-08-03T08:29:30.029Z,3.33
2022-08-03T08:31:57.968Z,3.78
2022-08-03T08:34:24.443Z,3.40
2022-08-03T08:36:50.966Z,3.38
2022-08-03T08:39:19.829Z,3.38
2022-08-03T08:41:48.677Z,3.45
2022-08-03T08:44:19.405Z,3.45
2022-08-03T08:46:51.209Z,3.42
2022-08-03T08:49:20.803Z,3.78
2022-08-03T08:51:59.115Z,3.67
2022-08-03T08:54:30.214Z,3.30
2022-08-03T08:56:59.806Z,3.58
2022-08-03T08:59:26.385Z,3.83
2022-08-03T09:02:03.029Z,3.50
2022-08-03T09:04:39.641Z,3.53
2022-08-03T09:07:20.174Z,3.42
2022-08-03T09:10:12.495Z,3.63
2022-08-03T09:12:47.109Z,3.25
2022-08-03T09:15:28.217Z,3.45
2022-08-03T09:17:57.687Z,3.67
2022-08-03T09:20:29.152Z,3.45
2022-08-03T09:23:01.634Z,3.85
2022-08-03T09:25:35.400Z,3.72
2022-08-03T09:28:13.640Z,3.58
2022-08-03T09:31:03.179Z,3.28
2022-08-03T09:33:34.849Z,3.13
2022-08-03T09:36:10.608Z,3.30
2022-08-03T09:38:37.433Z,3.85
2022-08-03T09:41:17.763Z,3.65
2022-08-03T09:43:47.657Z,4.13
2022-08-03T09:46:21.419Z,3.83
2022-08-03T09:48:47.967Z,4.15
2022-08-03T09:51:32.925Z,4.07
2022-08-03T09:54:17.592Z,3.58
2022-08-03T09:57:06.620Z,4.10
2022-08-03T09:59:38.089Z,4.07
2022-08-03T10:02:24.225Z,3.97
2022-08-03T10:04:52.906Z,3.95
2022-08-03T10:07:21.620Z,4.30
2022-08-03T10:10:30.054Z,4.57
2022-08-03T10:12:57.863Z,4.47
2022-08-03T10:16:21.563Z,4.30
2022-08-03T10:18:13.535Z,4.72
2022-08-03T10:20:52.133Z,4.32
2022-08-03T10:23:22.311Z,4.07
2022-08-03T10:28:51.199Z,4.75
2022-08-03T10:31:19.683Z,4.55
2022-08-03T10:33:52.795Z,4.43
2022-08-03T10:36:23.401Z,3.97
2022-08-03T10:39:53.776Z,4.72
2022-08-03T10:45:35.182Z,4.00
2022-08-03T10:48:25.928Z,3.65
2022-08-03T10:51:12.673Z,3.53
2022-08-03T10:53:54.502Z,3.28
2022-08-03T10:56:52.786Z,3.53
2022-08-03T10:59:46.773Z,3.15
2022-08-03T11:02:16.290Z,3.30
2022-08-03T11:04:48.189Z,3.33
2022-08-03T11:07:28.589Z,3.17
2022-08-03T11:09:58.355Z,2.88
2022-08-03T11:12:33.923Z,3.03
2022-08-03T11:18:36.668Z,3.97
2022-08-03T11:21:26.612Z,3.30
2022-08-03T11:24:03.048Z,3.00
2022-08-03T11:26:32.814Z,2.70
2022-08-03T11:29:29.157Z,2.95
2022-08-03T11:31:58.285Z,3.03
2022-08-03T11:34:26.325Z,2.85
2022-08-03T11:37:18.367Z,3.67
2022-08-03T11:39:56.758Z,2.60
2022-08-03T11:42:28.161Z,2.65
2022-08-03T11:45:03.877Z,2.67
2022-08-03T11:47:50.543Z,2.85
2022-08-03T11:50:19.043Z,3.03
2022-08-03T11:52:47.827Z,2.72
2022-08-03T11:55:25.018Z,2.92
2022-08-03T11:59:11.042Z,2.60
2022-08-03T12:00:54.282Z,3.22
2022-08-03T12:03:24.399Z,2.50
2022-08-03T12:05:55.805Z,2.90
2022-08-03T12:08:38.502Z,3.05
2022-08-03T12:11:07.603Z,3.38
2022-08-03T12:14:45.265Z,3.35
2022-08-03T12:16:37.784Z,2.92
2022-08-03T12:19:08.148Z,3.10
2022-08-03T12:21:57.390Z,2.92
2022-08-03T12:24:51.959Z,3.20
2022-08-03T12:27:29.828Z,2.75
2022-08-03T12:30:02.028Z,3.08
2022-08-03T12:32:29.215Z,2.70
2022-08-03T12:35:01.486Z,3.30
2022-08-03T12:37:29.080Z,2.63
2022-08-03T12:40:10.058Z,3.17
2022-08-03T12:42:38.482Z,3.53
2022-08-03T12:45:24.827Z,3.53
2022-08-03T12:47:57.938Z,3.00
2022-08-03T12:50:32.694Z,3.28
2022-08-03T12:53:00.944Z,3.10
2022-08-03T12:55:56.353Z,3.67
2022-08-03T12:58:34.781Z,3.58
2022-08-03T13:01:04.799Z,3.90
2022-08-03T13:03:50.361Z,4.10
2022-08-03T13:06:22.621Z,3.65
2022-08-03T13:08:49.680Z,3.47
2022-08-03T13:11:43.432Z,3.60
2022-08-03T13:14:19.602Z,4.18
2022-08-03T13:16:46.925Z,3.50
2022-08-03T13:19:15.244Z,3.85
2022-08-03T13:24:29.589Z,3.50
2022-08-03T13:26:56.999Z,3.25
2022-08-03T13:29:23.409Z,4.38
2022-08-03T13:31:50.874Z,3.58
2022-08-03T13:34:22.917Z,3.55
2022-08-03T13:37:08.498Z,3.80
2022-08-03T13:39:48.091Z,3.65
2022-08-03T13:42:22.141Z,3.28
2022-08-03T13:44:48.601Z,3.40
2022-08-03T13:47:15.023Z,3.17
2022-08-03T13:49:41.481Z,3.05
2022-08-03T13:52:07.950Z,3.17
2022-08-03T13:54:34.498Z,3.00
2022-08-03T13:58:04.669Z,3.33
2022-08-03T13:59:47.481Z,3.00
2022-08-03T14:02:13.960Z,3.00
2022-08-03T14:04:40.492Z,3.00
2022-08-03T14:07:06.970Z,3.25
2022-08-03T14:09:33.377Z,2.85
2022-08-03T14:12:07.495Z,3.40
2022-08-03T14:14:35.185Z,2.55
2022-08-03T14:17:01.629Z,2.53
2022-08-03T14:19:28.880Z,2.53
2022-08-03T14:22:06.170Z,2.60
2022-08-03T14:24:33.311Z,2.83
2022-08-03T14:27:07.177Z,2.40
2022-08-03T14:29:37.652Z,2.30
2022-08-03T14:34:38.723Z,2.38
2022-08-03T14:37:05.228Z,2.50
2022-08-03T14:39:58.255Z,2.30
2022-08-03T14:42:18.056Z,2.63
2022-08-03T14:44:44.577Z,2.40
2022-08-03T14:47:11.031Z,2.30
2022-08-03T14:50:36.068Z,2.70
2022-08-03T14:52:24.357Z,2.92
2022-08-03T14:54:50.845Z,2.42
2022-08-03T14:57:17.496Z,2.78
2022-08-03T14:59:56.317Z,2.50
2022-08-03T15:02:24.210Z,2.42
2022-08-03T15:04:50.935Z,2.55
2022-08-03T15:07:17.474Z,2.40
2022-08-03T15:09:44.118Z,2.58
2022-08-03T15:12:10.572Z,2.33
2022-08-03T15:14:37.815Z,3.08
2022-08-03T15:17:04.552Z,2.88
2022-08-03T15:20:03.239Z,2.35
2022-08-03T15:22:20.714Z,2.55
2022-08-03T15:24:51.587Z,2.30
2022-08-03T15:27:18.175Z,2.00
2022-08-03T15:30:07.741Z,2.30
2022-08-03T15:32:31.237Z,2.33
2022-08-03T15:34:57.662Z,2.47
2022-08-03T15:37:25.603Z,2.50
2022-08-03T15:39:59.286Z,2.30
2022-08-03T15:42:28.459Z,2.28
2022-08-03T15:44:54.899Z,2.65
2022-08-03T15:47:21.635Z,2.60
2022-08-03T15:49:48.326Z,2.85
2022-08-03T15:52:14.731Z,2.20
2022-08-03T15:54:41.249Z,2.45
2022-08-03T15:57:07.799Z,2.13
2022-08-03T15:59:36.618Z,2.13
2022-08-03T16:02:03.601Z,2.50
2022-08-03T16:04:30.126Z,2.35
2022-08-03T16:06:56.545Z,2.03
2022-08-03T16:09:43.291Z,2.08
2022-08-03T16:12:11.746Z,2.13
2022-08-03T16:14:51.724Z,2.08
2022-08-03T16:17:20.074Z,2.20
2022-08-03T16:19:46.695Z,2.20
2022-08-03T16:22:13.428Z,2.30
2022-08-03T16:24:41.072Z,2.05
2022-08-03T16:27:17.229Z,2.20
2022-08-03T16:29:44.386Z,2.38
2022-08-03T16:32:11.261Z,2.25
2022-08-03T16:34:39.244Z,2.10
2022-08-03T16:37:35.350Z,2.15
2022-08-03T16:39:55.543Z,2.50
2022-08-03T16:42:21.942Z,3.15
2022-08-03T16:44:48.342Z,2.33
2022-08-03T16:47:22.352Z,2.33
2022-08-03T16:49:54.832Z,2.42
2022-08-03T16:52:23.627Z,2.13
2022-08-03T16:54:53.557Z,2.03
2022-08-03T16:57:58.255Z,2.00
2022-08-03T17:00:33.206Z,2.00
2022-08-03T17:03:04.325Z,2.05
2022-08-03T17:05:37.685Z,2.42
2022-08-03T17:08:13.980Z,2.30
2022-08-03T17:10:45.045Z,2.03
2022-08-03T17:13:13.077Z,2.50
2022-08-03T17:16:00.596Z,2.22
2022-08-03T17:18:32.339Z,2.00
2022-08-03T17:21:03.549Z,2.03
2022-08-03T17:23:45.714Z,1.88
2022-08-03T17:26:21.589Z,1.98
2022-08-03T17:28:57.753Z,1.70
2022-08-03T17:31:31.827Z,1.80
2022-08-03T17:34:08.014Z,2.10
2022-08-03T17:37:02.683Z,2.28
2022-08-03T17:39:41.661Z,1.95
2022-08-03T17:42:29.309Z,1.85
2022-08-03T17:44:58.529Z,1.90
2022-08-03T17:47:42.820Z,2.17
2022-08-03T17:50:24.805Z,1.90
2022-08-03T17:55:56.671Z,1.90
2022-08-03T17:58:33.222Z,1.80
2022-08-03T18:02:02.798Z,2.10
2022-08-03T18:04:10.629Z,1.90
2022-08-03T18:06:38.830Z,2.13
2022-08-03T18:10:05.883Z,2.10
2022-08-03T18:12:14.332Z,1.90
2022-08-03T18:14:57.672Z,1.90
2022-08-03T18:17:55.858Z,1.75
2022-08-03T18:20:32.896Z,1.80
2022-08-03T18:23:06.027Z,2.10
2022-08-03T18:25:43.081Z,2.20
2022-08-03T18:28:19.127Z,1.83
2022-08-03T18:30:53.259Z,2.10
2022-08-03T18:34:18.079Z,1.90
2022-08-03T18:36:18.017Z,1.75
2022-08-03T18:38:46.473Z,1.90
2022-08-03T18:41:17.336Z,1.90
2022-08-03T18:44:07.155Z,1.65
2022-08-03T18:49:11.441Z,1.58
2022-08-03T18:51:43.301Z,1.92
2022-08-03T18:54:47.084Z,1.80
2022-08-03T18:57:10.266Z,3.15
2022-08-03T18:59:46.815Z,1.90
2022-08-03T19:02:29.739Z,1.70
2022-08-03T19:05:04.277Z,1.90
2022-08-03T19:07:36.024Z,1.75
2022-08-03T19:10:04.924Z,2.30
2022-08-03T19:12:44.677Z,2.00
2022-08-03T19:15:13.395Z,2.28
2022-08-03T19:17:50.248Z,2.25
2022-08-03T19:20:22.547Z,2.20
2022-08-03T19:22:52.666Z,2.10
2022-08-03T19:25:34.876Z,2.10
2022-08-03T19:28:04.043Z,1.90
2022-08-03T19:30:35.738Z,2.22
2022-08-03T19:33:13.175Z,1.90
2022-08-03T19:35:54.990Z,2.90
2022-08-03T19:38:28.202Z,2.00
2022-08-03T19:41:02.212Z,1.90
2022-08-03T19:43:52.993Z,2.00
2022-08-03T19:46:21.892Z,1.90
2022-08-03T19:49:10.652Z,1.83
2022-08-03T19:52:02.101Z,2.13
2022-08-03T19:54:43.795Z,2.10
2022-08-03T19:57:19.813Z,1.73
2022-08-03T19:59:50.058Z,1.92
2022-08-03T20:02:26.985Z,1.83
2022-08-03T20:04:55.827Z,1.92
2022-08-03T20:07:22.994Z,2.08
2022-08-03T20:09:54.512Z,2.05
2022-08-03T20:12:27.588Z,2.35
2022-08-03T20:14:58.589Z,2.00
2022-08-03T20:17:55.366Z,2.03
2022-08-03T20:20:12.326Z,2.25
2022-08-03T20:22:43.154Z,2.53
2022-08-03T20:25:24.251Z,2.08
2022-08-03T20:28:14.966Z,1.80
2022-08-03T20:30:49.031Z,2.28
2022-08-03T20:33:19.527Z,2.10
2022-08-03T20:35:54.446Z,2.42
2022-08-03T20:38:27.149Z,2.15
2022-08-03T20:40:54.029Z,2.00
2022-08-03T20:43:20.497Z,2.40
2022-08-03T20:46:00.735Z,2.10
2022-08-03T20:48:35.837Z,2.35
2022-08-03T20:51:05.269Z,2.40
2022-08-03T20:53:59.876Z,2.70
2022-08-03T20:56:32.245Z,2.58
2022-08-03T20:59:04.867Z,2.30
2022-08-03T21:01:35.938Z,2.33
2022-08-03T21:04:06.967Z,2.60
2022-08-03T21:06:45.610Z,2.65
2022-08-03T21:09:22.416Z,2.72
2022-08-03T21:11:50.698Z,3.15
2022-08-03T21:13:04.791Z,2.20
2022-08-03T21:14:33.042Z,2.78
2022-08-03T21:17:09.421Z,2.58
2022-08-03T21:19:41.613Z,3.15
2022-08-03T21:22:23.421Z,3.00
2022-08-03T21:24:55.946Z,3.13
2022-08-03T21:27:23.686Z,2.63
2022-08-03T21:29:53.220Z,3.25
2022-08-03T21:32:32.684Z,2.70
2022-08-03T21:35:00.041Z,2.70
2022-08-03T21:37:27.510Z,3.08
2022-08-03T21:39:55.306Z,2.78
2022-08-03T21:42:23.828Z,2.50
2022-08-03T21:44:52.054Z,2.80
2022-08-03T21:47:20.002Z,2.55
2022-08-03T21:50:06.083Z,3.13
2022-08-03T21:55:05.997Z,3.13
2022-08-03T21:57:37.572Z,3.35
2022-08-03T22:00:10.456Z,3.20
2022-08-03T22:02:39.010Z,2.95
2022-08-03T22:05:09.448Z,3.15
2022-08-03T22:07:43.186Z,3.05
2022-08-03T22:10:10.413Z,3.03
2022-08-03T22:12:38.252Z,3.20
2022-08-03T22:15:07.826Z,3.53
2022-08-03T22:17:55.786Z,3.13
2022-08-03T22:20:22.800Z,2.85
2022-08-03T22:22:55.352Z,3.50
2022-08-03T22:25:27.307Z,3.00
2022-08-03T22:27:54.419Z,2.95
2022-08-03T22:30:21.139Z,3.10
2022-08-03T22:32:50.429Z,3.35
2022-08-03T22:35:18.230Z,3.15
2022-08-03T22:37:45.629Z,3.20
2022-08-03T22:40:15.212Z,3.13
2022-08-03T22:42:45.554Z,3.03
2022-08-03T22:45:12.179Z,3.30
2022-08-03T22:47:58.638Z,3.50
2022-08-03T22:50:33.234Z,3.15
2022-08-03T22:53:00.761Z,3.28
2022-08-03T22:55:27.713Z,3.08
2022-08-03T22:57:56.185Z,3.10
2022-08-03T23:00:23.533Z,3.10
2022-08-03T23:02:51.045Z,3.38
2022-08-03T23:06:01.779Z,3.25
2022-08-03T23:08:11.516Z,3.17
2022-08-03T23:10:44.891Z,2.97
2022-08-03T23:13:13.389Z,3.25
2022-08-03T23:15:40.150Z,2.75
2022-08-03T23:18:07.440Z,3.05
2022-08-03T23:20:34.159Z,3.20
2022-08-03T23:23:00.772Z,3.13
2022-08-03T23:25:27.214Z,3.38
2022-08-03T23:28:04.524Z,3.20
2022-08-03T23:30:34.176Z,2.70
2022-08-03T23:33:01.260Z,2.92
2022-08-03T23:36:22.668Z,3.28
2022-08-03T23:38:36.647Z,3.45
2022-08-03T23:41:04.364Z,3.10
2022-08-03T23:43:51.263Z,3.05
2022-08-03T23:46:21.869Z,3.35
2022-08-03T23:48:48.319Z,3.40
2022-08-03T23:51:41.095Z,3.78
2022-08-03T23:54:41.719Z,2.92
2022-08-03T23:57:29.911Z,3.28
